createdAt,value
2023-02-12T00:00:55.664Z,23.27
2023-02-12T00:02:57.352Z,23.60
2023-02-12T00:04:59.271Z,24.30
2023-02-12T00:07:01.059Z,22.43
2023-02-12T00:09:02.733Z,23.60
2023-02-12T00:11:09.618Z,24.20
2023-02-12T00:13:12.112Z,24.00
2023-02-12T00:15:13.903Z,25.17
2023-02-12T00:17:15.579Z,25.03
2023-02-12T00:19:17.264Z,26.50
2023-02-12T00:21:19.172Z,26.53
2023-02-12T00:23:20.788Z,25.73
2023-02-12T00:25:22.525Z,23.50
2023-02-12T00:27:25.156Z,25.43
2023-02-12T00:29:26.816Z,26.17
2023-02-12T00:31:30.897Z,24.60
2023-02-12T00:33:32.587Z,26.50
2023-02-12T00:35:34.221Z,25.00
2023-02-12T00:37:35.954Z,23.60
2023-02-12T00:39:38.088Z,24.80
2023-02-12T00:41:39.756Z,24.73
2023-02-12T00:43:41.615Z,23.40
2023-02-12T00:45:45.516Z,26.50
2023-02-12T00:47:47.150Z,26.37
2023-02-12T00:49:49.016Z,25.80
2023-02-12T00:51:50.757Z,25.30
2023-02-12T00:53:52.428Z,25.87
2023-02-12T00:55:54.526Z,27.57
2023-02-12T00:57:56.343Z,25.33
2023-02-12T00:59:57.979Z,26.60
2023-02-12T01:01:59.695Z,25.57
2023-02-12T01:04:01.433Z,24.00
2023-02-12T01:06:03.066Z,26.20
2023-02-12T01:08:05.552Z,30.00
2023-02-12T01:10:08.485Z,26.60
2023-02-12T01:12:10.143Z,25.57
2023-02-12T01:14:11.792Z,27.77
2023-02-12T01:16:22.307Z,27.60
2023-02-12T01:18:24.007Z,26.93
2023-02-12T01:20:26.162Z,26.27
2023-02-12T01:22:28.040Z,29.23
2023-02-12T01:24:29.804Z,27.20
2023-02-12T01:26:31.950Z,28.60
2023-02-12T01:28:34.026Z,27.80
2023-02-12T01:30:35.711Z,25.90
2023-02-12T01:32:37.414Z,27.83
2023-02-12T01:34:39.067Z,26.57
2023-02-12T01:36:40.784Z,26.67
2023-02-12T01:38:42.608Z,27.70
2023-02-12T01:40:44.247Z,27.03
2023-02-12T01:42:46.031Z,25.93
2023-02-12T01:45:12.572Z,26.77
2023-02-12T01:47:18.551Z,26.77
2023-02-12T01:49:38.215Z,25.90
2023-02-12T01:51:40.934Z,25.07
2023-02-12T01:53:50.861Z,28.10
2023-02-12T01:55:58.118Z,27.50
2023-02-12T01:57:59.951Z,26.20
2023-02-12T02:00:05.383Z,26.80
2023-02-12T02:02:07.469Z,25.43
2023-02-12T02:04:14.915Z,26.07
2023-02-12T02:06:21.342Z,26.00
2023-02-12T02:08:23.609Z,25.80
2023-02-12T02:10:25.371Z,27.50
2023-02-12T02:12:46.408Z,28.40
2023-02-12T02:14:49.312Z,27.53
2023-02-12T02:17:03.730Z,26.60
2023-02-12T02:19:52.058Z,27.73
2023-02-12T02:22:27.033Z,27.40
2023-02-12T02:24:41.121Z,26.67
2023-02-12T02:27:07.577Z,28.43
2023-02-12T02:29:53.825Z,26.27
2023-02-12T02:31:55.476Z,25.67
2023-02-12T02:34:23.225Z,26.63
2023-02-12T02:36:59.669Z,27.93
2023-02-12T02:39:20.214Z,24.73
2023-02-12T02:41:40.947Z,27.17
2023-02-12T02:43:51.890Z,25.60
2023-02-12T02:45:59.506Z,25.97
2023-02-12T02:48:12.499Z,27.20
2023-02-12T02:50:18.553Z,26.63
2023-02-12T02:52:30.645Z,27.40
2023-02-12T02:54:43.164Z,26.43
2023-02-12T02:56:48.566Z,27.47
2023-02-12T02:59:01.112Z,26.17
2023-02-12T03:01:29.775Z,25.70
2023-02-12T03:03:40.500Z,26.63
2023-02-12T03:05:49.232Z,27.10
2023-02-12T03:08:00.414Z,27.90
2023-02-12T03:10:17.069Z,27.60
2023-02-12T03:12:57.263Z,25.00
2023-02-12T03:15:11.899Z,25.20
2023-02-12T03:17:39.569Z,25.53
2023-02-12T03:19:50.828Z,26.57
2023-02-12T03:22:02.335Z,27.63
2023-02-12T03:24:25.444Z,25.93
2023-02-12T03:26:51.944Z,25.70
2023-02-12T03:28:54.880Z,25.47
2023-02-12T03:31:13.091Z,27.03
2023-02-12T03:33:30.598Z,28.57
2023-02-12T03:35:38.890Z,27.57
2023-02-12T03:38:04.669Z,25.33
2023-02-12T03:40:42.731Z,24.30
2023-02-12T03:42:59.281Z,24.83
2023-02-12T03:45:26.266Z,26.93
2023-02-12T03:48:01.376Z,28.50
2023-02-12T03:50:14.630Z,27.17
2023-02-12T03:52:16.712Z,28.43
2023-02-12T03:54:21.631Z,27.90
2023-02-12T03:56:32.977Z,26.40
2023-02-12T03:58:36.973Z,26.23
2023-02-12T04:00:39.979Z,28.80
2023-02-12T04:02:42.780Z,27.80
2023-02-12T04:04:46.493Z,27.73
2023-02-12T04:06:50.510Z,29.07
2023-02-12T04:08:55.386Z,28.60
2023-02-12T04:11:30.134Z,29.77
2023-02-12T04:14:24.772Z,29.03
2023-02-12T04:16:37.824Z,28.93
2023-02-12T04:18:45.198Z,31.40
2023-02-12T04:21:12.769Z,27.97
2023-02-12T04:23:40.691Z,29.43
2023-02-12T04:25:48.195Z,29.93
2023-02-12T04:28:06.176Z,29.00
2023-02-12T04:30:20.667Z,29.03
2023-02-12T04:32:43.044Z,30.80
2023-02-12T04:34:49.309Z,28.13
2023-02-12T04:36:58.073Z,31.50
2023-02-12T04:39:04.829Z,30.03
2023-02-12T04:41:08.017Z,29.87
2023-02-12T04:43:10.028Z,31.43
2023-02-12T04:45:14.751Z,28.97
2023-02-12T04:47:16.988Z,30.73
2023-02-12T04:49:22.431Z,29.10
2023-02-12T04:51:24.724Z,30.07
2023-02-12T04:53:26.949Z,29.17
2023-02-12T04:55:29.073Z,27.47
2023-02-12T04:57:31.202Z,26.10
2023-02-12T04:59:33.133Z,28.27
2023-02-12T05:01:35.740Z,30.50
2023-02-12T05:03:38.581Z,32.30
2023-02-12T05:05:41.426Z,29.40
2023-02-12T05:07:43.834Z,28.13
2023-02-12T05:09:45.964Z,29.87
2023-02-12T05:11:48.183Z,30.83
2023-02-12T05:13:51.649Z,29.60
2023-02-12T05:15:53.929Z,28.30
2023-02-12T05:17:56.231Z,29.40
2023-02-12T05:19:58.363Z,27.47
2023-02-12T05:22:00.545Z,28.77
2023-02-12T05:24:03.798Z,27.20
2023-02-12T05:26:10.692Z,30.60
2023-02-12T05:28:12.862Z,30.27
2023-02-12T05:30:15.223Z,28.27
2023-02-12T05:32:17.356Z,30.80
2023-02-12T05:34:20.410Z,29.47
2023-02-12T05:36:24.133Z,31.27
2023-02-12T05:38:26.215Z,30.20
2023-02-12T05:40:28.320Z,32.43
2023-02-12T05:42:30.421Z,30.20
2023-02-12T05:44:33.258Z,31.20
2023-02-12T05:46:35.433Z,33.03
2023-02-12T05:48:38.182Z,30.83
2023-02-12T05:50:40.114Z,30.50
2023-02-12T05:52:42.433Z,31.33
2023-02-12T05:54:44.708Z,32.10
2023-02-12T05:56:48.460Z,29.37
2023-02-12T05:59:00.054Z,32.20
2023-02-12T06:01:02.386Z,31.20
2023-02-12T06:03:04.759Z,32.37
2023-02-12T06:05:07.252Z,31.70
2023-02-12T06:07:09.407Z,32.17
2023-02-12T06:09:12.895Z,31.57
2023-02-12T06:11:16.844Z,30.43
2023-02-12T06:13:18.987Z,32.93
2023-02-12T06:15:21.022Z,33.83
2023-02-12T06:17:23.114Z,30.30
2023-02-12T06:19:24.891Z,31.43
2023-02-12T06:21:27.575Z,32.30
2023-02-12T06:23:29.313Z,32.23
2023-02-12T06:25:31.173Z,32.27
2023-02-12T06:27:33.124Z,31.80
2023-02-12T06:29:35.125Z,33.10
2023-02-12T06:31:38.232Z,35.43
2023-02-12T06:33:41.369Z,43.77
2023-02-12T06:35:43.650Z,35.40
2023-02-12T06:37:45.823Z,36.20
2023-02-12T06:39:47.889Z,31.83
2023-02-12T06:41:50.562Z,34.57
2023-02-12T06:43:52.706Z,34.17
2023-02-12T06:45:55.193Z,33.00
2023-02-12T06:47:57.574Z,35.60
2023-02-12T06:49:59.461Z,31.67
2023-02-12T06:52:03.331Z,34.33
2023-02-12T06:54:05.619Z,34.00
2023-02-12T06:56:13.460Z,34.77
2023-02-12T06:58:15.719Z,33.20
2023-02-12T07:00:18.675Z,34.90
2023-02-12T07:02:20.747Z,31.47
2023-02-12T07:04:22.963Z,33.93
2023-02-12T07:06:26.490Z,33.73
2023-02-12T07:08:28.927Z,33.33
2023-02-12T07:10:31.027Z,32.97
2023-02-12T07:12:34.278Z,32.10
2023-02-12T07:14:36.607Z,31.67
2023-02-12T07:16:38.691Z,29.60
2023-02-12T07:18:41.003Z,30.87
2023-02-12T07:20:43.150Z,30.30
2023-02-12T07:22:45.456Z,31.57
2023-02-12T07:24:47.597Z,30.47
2023-02-12T07:26:49.793Z,27.77
2023-02-12T07:28:52.245Z,29.97
2023-02-12T07:30:54.689Z,24.73
2023-02-12T07:32:56.669Z,24.87
2023-02-12T07:34:58.806Z,28.70
2023-02-12T07:37:00.901Z,25.80
2023-02-12T07:39:03.534Z,26.30
2023-02-12T07:41:12.584Z,29.00
2023-02-12T07:43:14.743Z,33.90
2023-02-12T07:45:16.886Z,31.20
2023-02-12T07:47:19.248Z,28.70
2023-02-12T07:49:22.359Z,29.20
2023-02-12T07:51:25.129Z,27.27
2023-02-12T07:53:27.348Z,27.63
2023-02-12T07:55:29.427Z,26.43
2023-02-12T07:57:32.902Z,28.10
2023-02-12T07:59:35.110Z,25.47
2023-02-12T08:01:42.785Z,26.30
2023-02-12T08:03:45.667Z,24.10
2023-02-12T08:05:49.321Z,27.37
2023-02-12T08:07:51.173Z,26.57
2023-02-12T08:09:53.577Z,27.83
2023-02-12T08:11:55.907Z,25.27
2023-02-12T08:13:59.030Z,25.17
2023-02-12T08:16:07.309Z,24.00
2023-02-12T08:18:09.092Z,25.20
2023-02-12T08:20:11.270Z,25.33
2023-02-12T08:22:13.437Z,24.40
2023-02-12T08:24:15.166Z,23.03
2023-02-12T08:26:29.053Z,24.60
2023-02-12T08:28:30.772Z,25.83
2023-02-12T08:30:32.428Z,25.73
2023-02-12T08:32:34.455Z,28.90
2023-02-12T08:34:38.825Z,29.67
2023-02-12T08:36:40.792Z,22.53
2023-02-12T08:38:44.141Z,22.07
2023-02-12T08:40:45.986Z,22.97
2023-02-12T08:42:47.758Z,24.23
2023-02-12T08:44:49.744Z,21.97
2023-02-12T08:46:52.972Z,22.63
2023-02-12T08:49:02.746Z,22.00
2023-02-12T08:51:18.077Z,22.00
2023-02-12T08:53:22.215Z,22.07
2023-02-12T08:55:34.060Z,21.60
2023-02-12T08:57:36.143Z,22.87
2023-02-12T08:59:37.908Z,21.13
2023-02-12T09:01:43.616Z,23.17
2023-02-12T09:03:46.616Z,21.67
2023-02-12T09:05:48.416Z,22.03
2023-02-12T09:07:53.885Z,21.87
2023-02-12T09:09:55.600Z,22.27
2023-02-12T09:11:57.432Z,20.73
2023-02-12T09:14:05.177Z,22.30
2023-02-12T09:16:08.030Z,18.53
2023-02-12T09:18:11.766Z,20.40
2023-02-12T09:20:13.547Z,18.90
2023-02-12T09:22:15.581Z,17.30
2023-02-12T09:24:17.300Z,18.03
2023-02-12T09:26:22.253Z,16.00
2023-02-12T09:28:24.975Z,15.63
2023-02-12T09:30:27.518Z,18.03
2023-02-12T09:32:32.392Z,18.37
2023-02-12T09:34:37.374Z,10.83
2023-02-12T09:36:39.629Z,15.10
2023-02-12T09:38:42.297Z,19.03
2023-02-12T09:41:20.690Z,16.60
2023-02-12T09:43:28.666Z,13.80
2023-02-12T09:45:45.192Z,10.50
2023-02-12T09:47:56.571Z,12.30
2023-02-12T09:50:01.107Z,28.90
2023-02-12T09:52:04.007Z,10.43
2023-02-12T09:54:15.332Z,7.57
2023-02-12T09:56:19.807Z,9.30
2023-02-12T09:58:36.253Z,9.63
2023-02-12T10:00:39.723Z,10.27
2023-02-12T10:02:42.174Z,5.90
2023-02-12T10:04:59.728Z,8.33
2023-02-12T10:07:17.337Z,9.03
2023-02-12T10:09:44.228Z,6.70
2023-02-12T10:11:53.043Z,7.33
2023-02-12T10:14:03.888Z,4.10
2023-02-12T10:16:39.378Z,5.40
2023-02-12T10:18:47.215Z,5.30
2023-02-12T10:20:49.572Z,4.83
2023-02-12T10:23:09.613Z,2.50
2023-02-12T10:25:25.972Z,3.83
2023-02-12T10:27:45.703Z,4.43
2023-02-12T10:29:49.230Z,4.50
2023-02-12T10:32:26.541Z,4.43
2023-02-12T10:34:35.249Z,3.27
2023-02-12T10:36:47.796Z,4.23
2023-02-12T10:38:55.623Z,5.30
2023-02-12T10:41:01.709Z,6.40
2023-02-12T10:43:03.624Z,4.93
2023-02-12T10:45:06.107Z,5.00
2023-02-12T10:47:19.794Z,5.00
2023-02-12T10:49:21.902Z,5.00
2023-02-12T10:51:43.170Z,5.17
2023-02-12T10:53:46.190Z,5.97
2023-02-12T10:55:48.138Z,4.73
2023-02-12T10:57:49.932Z,5.60
2023-02-12T10:59:54.325Z,6.57
2023-02-12T11:01:56.104Z,6.13
2023-02-12T11:03:59.728Z,6.93
2023-02-12T11:06:17.246Z,6.90
2023-02-12T11:08:34.970Z,7.70
2023-02-12T11:10:40.351Z,6.80
2023-02-12T11:12:48.345Z,7.20
2023-02-12T11:14:55.858Z,6.37
2023-02-12T11:17:01.997Z,5.83
2023-02-12T11:19:07.204Z,6.20
2023-02-12T11:21:11.749Z,5.60
2023-02-12T11:23:30.495Z,6.37
2023-02-12T11:25:37.425Z,5.87
2023-02-12T11:27:39.327Z,5.47
2023-02-12T11:29:42.063Z,6.23
2023-02-12T11:32:03.964Z,5.40
2023-02-12T11:34:18.812Z,5.33
2023-02-12T11:36:25.726Z,5.17
2023-02-12T11:38:34.043Z,5.10
2023-02-12T11:40:36.401Z,4.30
2023-02-12T11:42:38.790Z,4.90
2023-02-12T11:44:43.732Z,4.60
2023-02-12T11:46:51.244Z,5.13
2023-02-12T11:48:55.355Z,4.83
2023-02-12T11:50:59.563Z,5.10
2023-02-12T11:53:09.382Z,4.07
2023-02-12T11:55:33.641Z,4.63
2023-02-12T11:57:48.760Z,5.13
2023-02-12T11:59:52.966Z,5.20
2023-02-12T12:01:56.987Z,4.70
2023-02-12T12:04:05.380Z,4.83
2023-02-12T12:06:29.760Z,5.13
2023-02-12T12:08:58.621Z,4.83
2023-02-12T12:11:05.934Z,5.20
2023-02-12T12:13:26.025Z,5.20
2023-02-12T12:15:52.298Z,4.70
2023-02-12T12:18:27.937Z,5.03
2023-02-12T12:20:36.953Z,5.10
2023-02-12T12:22:54.884Z,4.23
2023-02-12T12:25:16.995Z,5.20
2023-02-12T12:28:03.170Z,5.20
2023-02-12T12:30:11.587Z,4.60
2023-02-12T12:32:16.204Z,5.03
2023-02-12T12:34:21.820Z,5.20
2023-02-12T12:36:41.924Z,11.70
2023-02-12T12:39:05.300Z,5.47
2023-02-12T12:41:19.928Z,4.97
2023-02-12T12:43:45.760Z,5.87
2023-02-12T12:46:01.452Z,23.00
2023-02-12T12:48:35.048Z,7.90
2023-02-12T12:50:52.332Z,5.20
2023-02-12T12:53:10.133Z,4.60
2023-02-12T12:55:34.212Z,6.60
2023-02-12T12:57:48.135Z,5.97
2023-02-12T13:00:06.870Z,5.73
2023-02-12T13:02:46.470Z,6.90
2023-02-12T13:05:13.698Z,6.47
2023-02-12T13:07:29.024Z,6.53
2023-02-12T13:09:36.952Z,5.10
2023-02-12T13:11:52.638Z,5.67
2023-02-12T13:14:06.642Z,5.07
2023-02-12T13:16:20.927Z,5.77
2023-02-12T13:18:26.088Z,4.60
2023-02-12T13:20:53.222Z,4.97
2023-02-12T13:23:04.591Z,4.17
2023-02-12T13:25:46.171Z,4.17
2023-02-12T13:27:49.193Z,3.50
2023-02-12T13:29:55.434Z,3.80
2023-02-12T13:32:07.140Z,3.47
2023-02-12T13:34:15.556Z,3.30
2023-02-12T13:36:18.102Z,2.77
2023-02-12T13:38:30.924Z,3.00
2023-02-12T13:40:33.530Z,2.70
2023-02-12T13:42:43.422Z,2.40
2023-02-12T13:45:02.183Z,2.43
2023-02-12T13:47:10.089Z,2.70
2023-02-12T13:49:53.835Z,2.70
2023-02-12T13:52:18.320Z,2.00
2023-02-12T13:54:56.520Z,2.70
2023-02-12T13:57:02.012Z,2.27
2023-02-12T13:59:04.589Z,2.57
2023-02-12T14:01:10.812Z,2.50
2023-02-12T14:03:13.805Z,2.90
2023-02-12T14:05:26.166Z,2.80
2023-02-12T14:07:54.708Z,3.03
2023-02-12T14:09:56.609Z,2.57
2023-02-12T14:11:59.806Z,2.30
2023-02-12T14:14:05.244Z,3.03
2023-02-12T14:16:40.587Z,3.27
2023-02-12T14:18:42.595Z,3.50
2023-02-12T14:20:44.402Z,3.20
2023-02-12T14:22:49.074Z,3.50
2023-02-12T14:24:53.456Z,3.17
2023-02-12T14:26:55.774Z,3.23
2023-02-12T14:29:04.364Z,4.00
2023-02-12T14:31:36.165Z,3.90
2023-02-12T14:33:38.054Z,3.00
2023-02-12T14:35:47.864Z,4.03
2023-02-12T14:37:50.726Z,3.47
2023-02-12T14:40:30.983Z,2.80
2023-02-12T14:42:37.180Z,3.00
2023-02-12T14:44:45.050Z,2.60
2023-02-12T14:46:55.932Z,2.60
2023-02-12T14:49:05.829Z,2.77
2023-02-12T14:51:17.212Z,2.90
2023-02-12T14:53:37.669Z,3.40
2023-02-12T14:55:43.744Z,3.53
2023-02-12T14:57:46.929Z,3.40
2023-02-12T14:59:49.910Z,3.40
2023-02-12T15:01:53.543Z,2.73
2023-02-12T15:03:58.015Z,2.87
2023-02-12T15:06:21.906Z,3.63
2023-02-12T15:08:39.950Z,2.70
2023-02-12T15:10:48.743Z,2.60
2023-02-12T15:13:30.723Z,2.90
2023-02-12T15:15:39.146Z,3.00
2023-02-12T15:17:47.620Z,2.90
2023-02-12T15:20:22.571Z,3.67
2023-02-12T15:22:31.072Z,3.30
2023-02-12T15:24:32.759Z,2.53
2023-02-12T15:26:41.916Z,2.53
2023-02-12T15:28:47.139Z,2.90
2023-02-12T15:30:48.997Z,2.80
2023-02-12T15:32:51.118Z,3.13
2023-02-12T15:34:54.537Z,2.60
2023-02-12T15:37:01.833Z,3.27
2023-02-12T15:39:08.390Z,3.37
2023-02-12T15:41:28.497Z,3.00
2023-02-12T15:43:34.968Z,3.10
2023-02-12T15:45:37.167Z,2.93
2023-02-12T15:47:38.962Z,3.10
2023-02-12T15:49:41.983Z,2.77
2023-02-12T15:51:44.372Z,4.00
2023-02-12T15:53:46.350Z,3.20
2023-02-12T15:55:49.319Z,3.10
2023-02-12T15:57:53.072Z,3.10
2023-02-12T15:59:58.838Z,4.03
2023-02-12T16:02:03.508Z,7.00
2023-02-12T16:04:07.664Z,5.10
2023-02-12T16:06:16.601Z,3.80
2023-02-12T16:08:21.419Z,3.90
2023-02-12T16:10:23.982Z,3.70
2023-02-12T16:12:31.061Z,4.10
2023-02-12T16:14:44.692Z,3.80
2023-02-12T16:16:52.851Z,4.47
2023-02-12T16:19:18.731Z,5.90
2023-02-12T16:21:22.992Z,3.93
2023-02-12T16:23:24.807Z,5.10
2023-02-12T16:25:32.145Z,4.50
2023-02-12T16:27:35.045Z,3.80
2023-02-12T16:29:43.593Z,4.03
2023-02-12T16:32:01.537Z,4.00
2023-02-12T16:34:05.918Z,4.80
2023-02-12T16:36:14.475Z,5.07
2023-02-12T16:38:39.652Z,4.60
2023-02-12T16:40:41.401Z,4.53
2023-02-12T16:42:49.046Z,4.63
2023-02-12T16:44:50.689Z,5.33
2023-02-12T16:46:56.068Z,5.73
2023-02-12T16:49:00.570Z,4.23
2023-02-12T16:51:06.072Z,3.27
2023-02-12T16:53:23.272Z,5.10
2023-02-12T16:55:24.907Z,4.50
2023-02-12T16:57:26.648Z,5.23
2023-02-12T16:59:29.594Z,5.00
2023-02-12T17:01:34.821Z,5.07
2023-02-12T17:03:37.598Z,5.03
2023-02-12T17:05:39.426Z,4.97
2023-02-12T17:07:41.072Z,4.53
2023-02-12T17:09:42.802Z,4.60
2023-02-12T17:11:45.094Z,4.97
2023-02-12T17:13:48.615Z,5.03
2023-02-12T17:15:54.479Z,4.63
2023-02-12T17:17:56.416Z,10.00
2023-02-12T17:19:58.065Z,14.30
2023-02-12T17:22:00.000Z,7.20
2023-02-12T17:24:01.671Z,5.60
2023-02-12T17:26:03.537Z,5.73
2023-02-12T17:28:05.515Z,6.10
2023-02-12T17:30:08.692Z,7.70
2023-02-12T17:32:10.822Z,6.17
2023-02-12T17:34:12.528Z,6.43
2023-02-12T17:36:14.198Z,7.17
2023-02-12T17:38:15.848Z,8.50
2023-02-12T17:40:17.839Z,7.40
2023-02-12T17:42:19.547Z,7.33
2023-02-12T17:44:21.208Z,7.97
2023-02-12T17:46:25.835Z,8.13
2023-02-12T17:48:27.502Z,10.30
2023-02-12T17:50:29.176Z,14.17
2023-02-12T17:52:30.877Z,10.80
2023-02-12T17:54:32.712Z,12.93
2023-02-12T17:56:34.466Z,12.03
2023-02-12T17:58:36.088Z,12.03
2023-02-12T18:00:40.096Z,12.00
2023-02-12T18:02:41.851Z,9.60
2023-02-12T18:04:43.628Z,9.97
2023-02-12T18:06:45.362Z,12.33
2023-02-12T18:08:46.996Z,9.20
2023-02-12T18:10:48.733Z,9.13
2023-02-12T18:12:50.371Z,16.07
2023-02-12T18:14:59.557Z,16.10
2023-02-12T18:17:01.343Z,11.73
2023-02-12T18:19:04.682Z,16.20
2023-02-12T18:21:08.803Z,11.93
2023-02-12T18:23:11.224Z,16.30
2023-02-12T18:25:13.045Z,21.50
2023-02-12T18:27:15.572Z,15.00
2023-02-12T18:29:17.276Z,16.10
2023-02-12T18:31:19.935Z,12.33
2023-02-12T18:33:21.617Z,11.13
2023-02-12T18:35:23.469Z,12.37
2023-02-12T18:37:25.158Z,12.00
2023-02-12T18:39:26.791Z,12.57
2023-02-12T18:41:31.365Z,12.17
2023-02-12T18:43:35.912Z,11.23
2023-02-12T18:45:40.006Z,12.80
2023-02-12T18:47:41.983Z,11.50
2023-02-12T18:49:43.617Z,12.10
2023-02-12T18:51:45.260Z,12.47
2023-02-12T18:53:46.930Z,12.83
2023-02-12T18:55:48.602Z,10.87
2023-02-12T18:57:50.212Z,12.60
2023-02-12T18:59:51.915Z,14.73
2023-02-12T19:01:53.701Z,13.87
2023-02-12T19:03:57.718Z,13.50
2023-02-12T19:06:04.322Z,13.50
2023-02-12T19:08:05.978Z,14.53
2023-02-12T19:10:08.370Z,17.00
2023-02-12T19:12:10.810Z,18.90
2023-02-12T19:14:14.266Z,20.10
2023-02-12T19:16:19.116Z,18.33
2023-02-12T19:18:20.912Z,16.17
2023-02-12T19:20:22.876Z,14.23
2023-02-12T19:22:24.642Z,15.17
2023-02-12T19:24:30.485Z,14.73
2023-02-12T19:26:39.905Z,15.90
2023-02-12T19:28:42.237Z,16.40
2023-02-12T19:30:43.969Z,14.73
2023-02-12T19:32:46.255Z,14.70
2023-02-12T19:34:48.068Z,15.13
2023-02-12T19:36:50.034Z,15.93
2023-02-12T19:38:51.682Z,17.43
2023-02-12T19:41:02.653Z,16.23
2023-02-12T19:43:04.310Z,17.47
2023-02-12T19:45:06.329Z,16.40
2023-02-12T19:47:08.939Z,17.00
2023-02-12T19:49:26.827Z,18.30
2023-02-12T19:51:30.213Z,16.33
2023-02-12T19:53:32.238Z,17.37
2023-02-12T19:55:35.667Z,14.90
2023-02-12T19:57:38.551Z,15.43
2023-02-12T19:59:41.088Z,14.83
2023-02-12T20:01:43.768Z,16.00
2023-02-12T20:03:47.374Z,15.57
2023-02-12T20:05:53.020Z,15.20
2023-02-12T20:07:54.674Z,15.70
2023-02-12T20:09:56.369Z,16.00
2023-02-12T20:11:58.235Z,14.83
2023-02-12T20:14:02.173Z,14.17
2023-02-12T20:16:09.410Z,14.27
2023-02-12T20:18:11.224Z,14.57
2023-02-12T20:20:13.898Z,15.80
2023-02-12T20:22:15.715Z,16.37
2023-02-12T20:24:17.359Z,15.20
2023-02-12T20:26:19.937Z,15.33
2023-02-12T20:28:21.678Z,14.43
2023-02-12T20:30:23.425Z,15.40
2023-02-12T20:32:25.141Z,15.03
2023-02-12T20:34:26.762Z,14.70
2023-02-12T20:36:35.097Z,14.43
2023-02-12T20:38:38.304Z,14.10
2023-02-12T20:40:39.971Z,15.07
2023-02-12T20:42:41.606Z,14.87
2023-02-12T20:44:43.226Z,14.23
2023-02-12T20:46:46.428Z,15.43
2023-02-12T20:48:48.405Z,15.00
2023-02-12T20:50:50.057Z,15.63
2023-02-12T20:52:51.734Z,15.77
2023-02-12T20:54:53.358Z,14.53
2023-02-12T20:56:55.003Z,15.90
2023-02-12T20:58:57.771Z,14.63
2023-02-12T21:01:09.509Z,14.40
2023-02-12T21:03:11.165Z,14.27
2023-02-12T21:05:12.868Z,14.87
2023-02-12T21:07:15.092Z,14.20
2023-02-12T21:09:17.318Z,15.07
2023-02-12T21:11:22.091Z,14.63
2023-02-12T21:13:25.395Z,14.37
2023-02-12T21:15:27.069Z,14.23
2023-02-12T21:17:28.718Z,12.63
2023-02-12T21:19:30.387Z,15.60
2023-02-12T21:21:34.434Z,16.27
2023-02-12T21:23:36.635Z,14.93
2023-02-12T21:25:38.299Z,15.93
2023-02-12T21:27:40.831Z,14.80
2023-02-12T21:29:42.505Z,14.77
2023-02-12T21:31:46.503Z,15.87
2023-02-12T21:33:49.834Z,15.93
2023-02-12T21:35:51.491Z,15.10
2023-02-12T21:37:53.124Z,15.53
2023-02-12T21:39:54.812Z,14.80
2023-02-12T21:42:00.137Z,15.80
2023-02-12T21:44:04.848Z,15.00
2023-02-12T21:46:07.918Z,15.70
2023-02-12T21:48:09.728Z,16.20
2023-02-12T21:50:14.192Z,17.07
2023-02-12T21:52:16.564Z,16.33
2023-02-12T21:54:18.983Z,17.50
2023-02-12T21:56:21.436Z,16.00
2023-02-12T21:58:23.225Z,16.00
2023-02-12T22:00:29.334Z,15.50
2023-02-12T22:02:31.336Z,15.50
2023-02-12T22:04:33.301Z,16.80
2023-02-12T22:06:44.105Z,15.57
2023-02-12T22:08:46.449Z,15.80
2023-02-12T22:10:48.109Z,16.00
2023-02-12T22:12:49.818Z,14.43
2023-02-12T22:14:51.500Z,15.70
2023-02-12T22:16:53.308Z,14.80
2023-02-12T22:19:01.869Z,16.30
2023-02-12T22:21:05.457Z,15.33
2023-02-12T22:23:07.384Z,16.47
2023-02-12T22:25:09.020Z,14.90
2023-02-12T22:27:10.706Z,15.57
2023-02-12T22:29:15.083Z,16.23
2023-02-12T22:31:20.024Z,16.87
2023-02-12T22:33:21.689Z,16.60
2023-02-12T22:35:23.353Z,16.33
2023-02-12T22:37:25.144Z,16.33
2023-02-12T22:39:29.728Z,17.07
2023-02-12T22:41:31.796Z,16.33
2023-02-12T22:43:36.940Z,15.97
2023-02-12T22:45:43.564Z,15.90
2023-02-12T22:47:45.377Z,15.93
2023-02-12T22:49:47.092Z,15.43
2023-02-12T22:51:48.861Z,16.37
2023-02-12T22:53:50.576Z,16.37
2023-02-12T22:55:53.028Z,15.73
2023-02-12T22:57:54.712Z,17.20
2023-02-12T22:59:56.389Z,17.13
2023-02-12T23:01:59.277Z,16.30
2023-02-12T23:04:01.106Z,16.87
2023-02-12T23:06:04.882Z,17.33
2023-02-12T23:08:07.041Z,17.73
2023-02-12T23:10:08.955Z,16.97
2023-02-12T23:12:11.064Z,16.17
2023-02-12T23:14:12.876Z,17.67
2023-02-12T23:16:14.749Z,17.27
2023-02-12T23:18:17.388Z,16.67
2023-02-12T23:20:19.372Z,17.53
2023-02-12T23:22:21.121Z,17.20
2023-02-12T23:24:24.509Z,16.33
2023-02-12T23:26:27.523Z,17.83
2023-02-12T23:28:29.992Z,18.17
2023-02-12T23:30:31.800Z,17.13
2023-02-12T23:32:33.602Z,18.07
2023-02-12T23:34:35.458Z,16.43
2023-02-12T23:36:37.246Z,16.50
2023-02-12T23:38:39.010Z,18.17
2023-02-12T23:40:41.125Z,16.63
2023-02-12T23:42:42.871Z,17.77
2023-02-12T23:44:44.512Z,18.47
2023-02-12T23:46:49.996Z,18.70
2023-02-12T23:48:51.754Z,17.97
2023-02-12T23:50:53.395Z,18.80
2023-02-12T23:52:55.040Z,19.87
2023-02-12T23:54:56.883Z,18.23
2023-02-12T23:56:58.614Z,19.07
2023-02-12T23:59:00.297Z,18.83
